createdAt,value
2018-02-13T14:58:20.097Z,3552
2018-02-13T14:59:29.824Z,3608
2018-02-13T15:00:39.630Z,3568
2018-02-13T15:01:49.351Z,3556
2018-02-13T15:02:59.337Z,3488
2018-02-13T15:04:08.854Z,3420
2018-02-13T15:05:18.359Z,3320
2018-02-13T15:06:27.859Z,3236
2018-02-13T15:07:37.638Z,3304
2018-02-13T15:08:47.105Z,3292
2018-02-13T15:09:56.289Z,3248
2018-02-13T15:11:06.015Z,3132
2018-02-13T15:12:15.204Z,3164
2018-02-13T15:13:25.185Z,3100
2018-02-13T15:14:34.900Z,3084
2018-02-13T15:15:44.092Z,3048
2018-02-13T15:16:53.552Z,3008
2018-02-13T15:18:03.013Z,3020
2018-02-13T15:19:12.198Z,2976
2018-02-13T15:20:21.911Z,2936
2018-02-13T15:21:31.368Z,2892
2018-02-13T15:22:41.398Z,2800
2018-02-13T15:23:51.000Z,2776
2018-02-13T15:25:01.109Z,2616
2018-02-13T15:26:10.306Z,2380
2018-02-13T15:27:20.019Z,1976
2018-02-13T15:28:29.207Z,2624
2018-02-13T15:29:38.134Z,2620
2018-02-13T15:30:47.589Z,2528
2018-02-13T15:31:57.331Z,2528
2018-02-13T15:33:06.581Z,2444
2018-02-13T15:34:16.093Z,2428
2018-02-13T15:35:25.813Z,2356
2018-02-13T15:36:35.293Z,2348
2018-02-13T15:37:44.489Z,2332
2018-02-13T15:38:53.940Z,2304
2018-02-13T15:40:03.442Z,2260
2018-02-13T15:41:13.205Z,2200
2018-02-13T15:42:22.666Z,2152
2018-02-13T15:43:32.128Z,2108
2018-02-13T15:44:42.113Z,2096
2018-02-13T15:45:51.834Z,2048
2018-02-13T15:47:01.590Z,1988
2018-02-13T15:48:10.518Z,1956
2018-02-13T15:49:20.016Z,1908
2018-02-13T15:50:29.738Z,1856
2018-02-13T15:51:39.458Z,1788
2018-02-13T15:52:48.909Z,1752
2018-02-13T15:53:58.093Z,1704
2018-02-13T15:55:07.036Z,1648
2018-02-13T15:56:16.487Z,1592
2018-02-13T15:57:25.992Z,1492
2018-02-13T15:58:35.312Z,1344
2018-02-13T15:59:45.106Z,1196
2018-02-13T16:00:54.560Z,1064
2018-02-13T16:02:04.558Z,956
2018-02-13T16:03:14.054Z,880
2018-02-13T16:04:24.041Z,836
2018-02-13T16:05:34.025Z,796
2018-02-13T16:06:43.213Z,772
2018-02-13T16:07:52.671Z,744
2018-02-13T16:09:02.261Z,724
2018-02-13T16:10:11.932Z,704
2018-02-13T16:11:21.501Z,680
2018-02-13T16:12:30.437Z,652
2018-02-13T16:13:39.895Z,624
2018-02-13T16:14:49.139Z,600
2018-02-13T16:15:59.193Z,580
2018-02-13T16:17:08.955Z,556
2018-02-13T16:18:18.145Z,532
2018-02-13T16:19:27.601Z,508
2018-02-13T16:20:37.105Z,480
2018-02-13T16:21:46.339Z,456
2018-02-13T16:22:56.135Z,436
2018-02-13T16:24:05.350Z,412
2018-02-13T16:25:15.080Z,388
2018-02-13T16:26:24.580Z,372
2018-02-13T16:27:33.776Z,348
2018-02-13T16:28:43.759Z,324
2018-02-13T16:29:53.495Z,304
2018-02-13T16:31:02.966Z,280
2018-02-13T16:32:12.423Z,256
2018-02-13T16:33:21.610Z,236
2018-02-13T16:34:31.061Z,216
2018-02-13T16:35:40.260Z,200
2018-02-13T16:36:49.450Z,180
2018-02-13T16:37:59.305Z,164
2018-02-13T16:39:08.502Z,148
2018-02-13T16:40:17.687Z,132
2018-02-13T16:41:26.883Z,120
2018-02-13T16:42:36.862Z,108
2018-02-13T16:43:46.839Z,96
2018-02-13T16:44:56.556Z,88
2018-02-13T16:46:06.289Z,76
2018-02-13T16:47:15.733Z,68
2018-02-13T16:48:24.657Z,56
2018-02-13T16:49:34.487Z,52
2018-02-13T16:50:44.219Z,44
2018-02-13T16:51:54.198Z,40
2018-02-13T16:53:03.653Z,36
2018-02-13T16:54:12.692Z,28
2018-02-13T16:55:22.783Z,28
2018-02-13T16:56:32.232Z,24
2018-02-13T16:57:42.223Z,20
2018-02-13T16:58:52.206Z,16
2018-02-13T17:00:02.192Z,16
2018-02-13T17:01:11.638Z,12
2018-02-13T17:02:20.820Z,8
2018-02-13T17:03:30.265Z,8
2018-02-13T17:04:39.712Z,8
2018-02-13T17:05:49.429Z,8
2018-02-13T17:06:58.876Z,8
2018-02-13T17:08:08.621Z,4
2018-02-13T17:09:18.072Z,4
2018-02-13T17:10:27.637Z,4
2018-02-13T17:11:37.406Z,4
2018-02-13T17:12:46.370Z,4
2018-02-13T17:13:56.124Z,4
2018-02-13T17:15:05.572Z,4
2018-02-13T17:16:15.020Z,0
2018-02-13T17:17:24.202Z,0
2018-02-13T17:18:33.924Z,4
2018-02-13T17:19:43.209Z,4
2018-02-13T17:20:52.758Z,4
2018-02-13T17:22:01.942Z,4
2018-02-13T17:23:11.656Z,4
2018-02-13T17:24:21.658Z,4
2018-02-13T17:25:31.114Z,4
2018-02-13T17:26:40.658Z,4
2018-02-13T17:27:50.180Z,4
2018-02-13T17:29:00.167Z,4
2018-02-13T17:30:09.402Z,0
2018-02-13T17:31:18.611Z,0
2018-02-13T17:32:28.055Z,0
2018-02-13T17:33:37.237Z,0
2018-02-13T17:34:46.951Z,0
2018-02-13T17:35:56.139Z,0
2018-02-13T17:37:05.861Z,0
2018-02-13T17:38:15.046Z,0
2018-02-13T17:39:24.753Z,0
2018-02-13T17:40:34.199Z,0
2018-02-13T17:41:43.968Z,0
2018-02-13T17:42:53.752Z,0
2018-02-13T17:44:03.522Z,0
2018-02-13T17:45:12.976Z,0
2018-02-13T17:46:21.659Z,0
2018-02-13T17:47:31.372Z,0
2018-02-13T17:48:40.414Z,0
2018-02-13T17:49:49.933Z,0
2018-02-13T17:50:59.422Z,0
2018-02-13T17:52:08.629Z,0
2018-02-13T17:53:18.724Z,0
2018-02-13T17:54:28.199Z,0
2018-02-13T17:55:38.177Z,0
2018-02-13T17:56:47.773Z,0
2018-02-13T17:57:57.223Z,0
2018-02-13T17:59:07.034Z,0
2018-02-13T18:00:17.044Z,0
2018-02-13T18:01:26.847Z,0
2018-02-13T18:02:36.316Z,0
2018-02-13T18:03:46.032Z,0
2018-02-13T18:04:55.275Z,0
2018-02-13T18:06:04.198Z,0
2018-02-13T18:07:13.650Z,0
2018-02-13T18:08:23.072Z,0
2018-02-13T18:09:33.424Z,0
2018-02-13T18:10:43.340Z,0
2018-02-13T18:11:53.372Z,0
2018-02-13T18:13:02.656Z,0
2018-02-13T18:14:12.509Z,0
2018-02-13T18:15:22.345Z,0
2018-02-13T18:16:32.227Z,0
2018-02-13T18:17:42.475Z,0
2018-02-13T18:18:51.910Z,0
2018-02-13T18:20:01.655Z,0
2018-02-13T18:21:11.687Z,0
2018-02-13T18:22:21.085Z,0
2018-02-13T18:23:30.645Z,0
2018-02-13T18:24:40.421Z,0
2018-02-13T18:25:50.424Z,0
2018-02-13T18:26:59.571Z,0
2018-02-13T18:28:09.997Z,0
2018-02-13T18:29:19.512Z,0
2018-02-13T18:30:29.654Z,0
2018-02-13T18:31:39.480Z,0
2018-02-13T18:32:49.375Z,0
2018-02-13T18:33:59.197Z,0
2018-02-13T18:35:10.001Z,0
2018-02-13T18:36:20.178Z,0
2018-02-13T18:37:29.975Z,0
2018-02-13T18:38:40.232Z,0
2018-02-13T18:39:49.974Z,0
2018-02-13T18:41:00.268Z,0
2018-02-13T18:42:09.984Z,0
2018-02-13T18:43:19.890Z,0
2018-02-13T18:44:28.965Z,0
2018-02-13T18:45:39.161Z,0
2018-02-13T18:46:49.040Z,0
2018-02-13T18:47:59.134Z,0
2018-02-13T18:49:08.913Z,0
2018-02-13T18:50:19.104Z,0
2018-02-13T18:51:28.930Z,0
2018-02-13T18:53:47.024Z,0
2018-02-13T18:54:57.155Z,0
2018-02-13T18:56:07.016Z,0
2018-02-13T18:57:16.991Z,0
2018-02-13T18:58:26.814Z,0
2018-02-13T18:59:36.322Z,0
2018-02-13T19:00:46.293Z,0
2018-02-13T19:01:56.430Z,0
2018-02-13T19:03:06.755Z,0
2018-02-13T19:04:16.271Z,0
2018-02-13T19:05:26.010Z,0
2018-02-13T19:06:36.015Z,0
2018-02-13T19:07:46.268Z,0
2018-02-13T19:08:57.037Z,0
2018-02-13T19:10:07.422Z,0
2018-02-13T19:11:17.484Z,0
2018-02-13T19:12:27.358Z,0
2018-02-13T19:13:37.713Z,0
2018-02-13T19:14:47.230Z,0
2018-02-13T19:15:56.587Z,0
2018-02-13T19:18:15.625Z,0
2018-02-13T19:19:25.686Z,0
2018-02-13T19:20:36.452Z,0
2018-02-13T19:21:46.218Z,0
2018-02-13T19:22:55.941Z,0
2018-02-13T19:24:06.057Z,0
2018-02-13T19:25:16.681Z,0
2018-02-13T19:26:26.779Z,0
2018-02-13T19:27:36.270Z,0
2018-02-13T19:28:46.477Z,0
2018-02-13T19:29:56.107Z,0
2018-02-13T19:31:05.936Z,0
2018-02-13T19:32:15.176Z,0
2018-02-13T19:33:24.648Z,0
2018-02-13T19:34:34.728Z,0
2018-02-13T19:35:44.292Z,0
2018-02-13T19:36:54.387Z,0
2018-02-13T19:38:04.320Z,0
2018-02-13T19:39:14.112Z,0
2018-02-13T19:40:23.644Z,0
2018-02-13T19:41:34.073Z,0
2018-02-13T19:42:43.901Z,0
2018-02-13T19:43:53.377Z,0
2018-02-13T19:45:02.501Z,0
2018-02-13T19:46:12.029Z,0
2018-02-13T19:47:21.328Z,0
2018-02-13T19:48:31.470Z,0
2018-02-13T19:49:41.268Z,0
2018-02-13T19:50:50.822Z,0
2018-02-13T19:52:01.315Z,0
2018-02-13T19:53:10.880Z,0
2018-02-13T19:54:20.641Z,0
2018-02-13T19:55:31.080Z,0
2018-02-13T19:56:40.632Z,0
2018-02-13T19:57:50.190Z,0
2018-02-13T19:59:00.283Z,0
2018-02-13T20:00:10.777Z,0
2018-02-13T20:01:20.654Z,0
2018-02-13T20:02:30.291Z,0
2018-02-13T20:03:40.126Z,0
2018-02-13T20:04:49.995Z,0
2018-02-13T20:06:00.049Z,0
2018-02-13T20:07:10.051Z,0
2018-02-13T20:08:19.819Z,0
2018-02-13T20:09:29.819Z,0
2018-02-13T20:10:40.023Z,0
2018-02-13T20:11:50.319Z,0
2018-02-13T20:13:00.308Z,0
2018-02-13T20:14:09.842Z,0
2018-02-13T20:15:19.044Z,0
2018-02-13T20:16:28.779Z,0
2018-02-13T20:17:38.233Z,0
2018-02-13T20:18:47.463Z,0
2018-02-13T20:19:57.224Z,0
2018-02-13T20:21:06.181Z,0
2018-02-13T20:22:15.915Z,0
2018-02-13T20:23:25.403Z,0
2018-02-13T20:24:34.885Z,0
2018-02-13T20:25:44.339Z,0
2018-02-13T20:26:54.051Z,0
2018-02-13T20:28:03.820Z,0
2018-02-13T20:29:13.308Z,0
2018-02-13T20:30:22.753Z,0
2018-02-13T20:31:32.198Z,0
2018-02-13T20:32:41.696Z,0
2018-02-13T20:33:51.453Z,0
2018-02-13T20:35:00.970Z,0
2018-02-13T20:36:09.996Z,0
2018-02-13T20:37:19.815Z,0
2018-02-13T20:38:29.577Z,0
2018-02-13T20:39:38.820Z,0
2018-02-13T20:40:48.012Z,0
2018-02-13T20:41:57.582Z,0
2018-02-13T20:43:06.620Z,4
2018-02-13T20:44:15.736Z,4
2018-02-13T20:45:25.416Z,4
2018-02-13T20:46:35.256Z,0
2018-02-13T20:47:45.052Z,0
2018-02-13T20:48:55.343Z,0
2018-02-13T20:50:04.643Z,0
2018-02-13T20:51:14.342Z,0
2018-02-13T20:52:24.475Z,0
2018-02-13T20:53:34.597Z,0
2018-02-13T20:54:44.443Z,0
2018-02-13T20:55:53.668Z,0
2018-02-13T20:57:03.579Z,0
2018-02-13T20:58:13.178Z,0
2018-02-13T20:59:22.441Z,0
2018-02-13T21:00:31.728Z,0
2018-02-13T21:01:41.249Z,0
2018-02-13T21:02:50.541Z,0
2018-02-13T21:04:00.778Z,0
2018-02-13T21:05:10.783Z,0
2018-02-13T21:06:19.967Z,0
2018-02-13T21:07:29.818Z,0
2018-02-13T21:08:39.364Z,0
2018-02-13T21:09:48.658Z,0
2018-02-13T21:10:58.277Z,0
2018-02-13T21:12:07.928Z,0
2018-02-13T21:13:17.244Z,0
2018-02-13T21:14:26.471Z,0
2018-02-13T21:15:36.381Z,0
2018-02-13T21:16:46.209Z,0
2018-02-13T21:17:55.422Z,0
2018-02-13T21:19:05.439Z,0
2018-02-13T21:20:15.009Z,0
2018-02-13T21:21:24.484Z,0
2018-02-13T21:22:34.034Z,0
2018-02-13T21:23:43.775Z,0
2018-02-13T21:24:53.996Z,0
2018-02-13T21:26:03.001Z,0
2018-02-13T21:27:13.002Z,0
2018-02-13T21:28:22.895Z,0
2018-02-13T21:29:32.805Z,0
2018-02-13T21:30:42.834Z,0
2018-02-13T21:31:52.753Z,0
2018-02-13T21:33:02.509Z,0
2018-02-13T21:34:11.958Z,0
2018-02-13T21:35:22.813Z,0
2018-02-13T21:36:32.394Z,0
2018-02-13T21:37:42.330Z,0
2018-02-13T21:38:51.937Z,0
2018-02-13T21:40:01.979Z,0
2018-02-13T21:41:11.489Z,0
2018-02-13T21:42:20.820Z,0
2018-02-13T21:43:30.756Z,0
2018-02-13T21:44:40.313Z,0
2018-02-13T21:45:50.677Z,0
2018-02-13T21:47:00.500Z,0
2018-02-13T21:48:10.628Z,0
2018-02-13T21:49:20.613Z,0
2018-02-13T21:50:30.120Z,0
2018-02-13T21:51:40.142Z,0
2018-02-13T21:52:49.986Z,0
2018-02-13T21:53:59.985Z,0
2018-02-13T21:55:09.915Z,0
2018-02-13T21:56:19.779Z,0
2018-02-13T21:57:29.500Z,0
2018-02-13T21:58:39.569Z,0
2018-02-13T21:59:49.937Z,0
2018-02-13T22:00:59.548Z,0
2018-02-13T22:02:09.349Z,0
2018-02-13T22:03:19.446Z,0
2018-02-13T22:04:29.495Z,0
2018-02-13T22:05:39.086Z,0
2018-02-13T22:06:48.943Z,0
2018-02-13T22:07:58.540Z,0
2018-02-13T22:09:08.287Z,0
2018-02-13T22:10:18.689Z,0
2018-02-13T22:11:28.929Z,0
2018-02-13T22:12:38.657Z,0
2018-02-13T22:13:49.031Z,0
2018-02-13T22:14:59.044Z,0
2018-02-13T22:16:08.840Z,0
2018-02-13T22:17:18.038Z,0
2018-02-13T22:18:27.857Z,0
2018-02-13T22:19:37.362Z,0
2018-02-13T22:20:46.855Z,0
2018-02-13T22:21:55.626Z,0
2018-02-13T22:23:05.457Z,0
2018-02-13T22:24:14.802Z,0
2018-02-13T22:25:24.058Z,0
2018-02-13T22:26:33.546Z,0
2018-02-13T22:27:43.378Z,0
2018-02-13T22:28:53.272Z,0
2018-02-13T22:30:03.380Z,0
2018-02-13T22:31:12.898Z,0
2018-02-13T22:32:22.400Z,0
2018-02-13T22:33:32.532Z,0
2018-02-13T22:34:41.775Z,0
2018-02-13T22:35:51.959Z,0
2018-02-13T22:37:01.967Z,0
2018-02-13T22:38:11.774Z,0
2018-02-13T22:39:21.299Z,0
2018-02-13T22:40:30.606Z,0
2018-02-13T22:41:40.759Z,0
2018-02-13T22:42:50.825Z,0
2018-02-13T22:44:00.437Z,0
2018-02-13T22:45:09.650Z,0
2018-02-13T22:46:19.124Z,0
2018-02-13T22:47:28.844Z,0
2018-02-13T22:48:38.901Z,0
2018-02-13T22:49:48.382Z,0
2018-02-13T22:50:58.133Z,0
2018-02-13T22:52:07.646Z,0
2018-02-13T22:53:16.941Z,0
2018-02-13T22:54:26.144Z,0
2018-02-13T22:55:36.260Z,0
2018-02-13T22:56:46.144Z,0
2018-02-13T22:57:55.417Z,0
2018-02-13T22:59:05.156Z,0
2018-02-13T23:00:14.641Z,0
2018-02-13T23:01:24.395Z,0
2018-02-13T23:02:34.443Z,0
2018-02-13T23:03:44.163Z,0
2018-02-13T23:04:54.225Z,0
2018-02-13T23:06:03.946Z,0
2018-02-13T23:07:13.679Z,0
2018-02-13T23:08:23.443Z,0
2018-02-13T23:09:33.431Z,0
2018-02-13T23:10:42.903Z,0
2018-02-13T23:11:52.364Z,0
2018-02-13T23:13:01.583Z,0
2018-02-13T23:14:10.910Z,0
2018-02-13T23:15:20.692Z,0
2018-02-13T23:16:30.262Z,0
2018-02-13T23:17:39.809Z,0
2018-02-13T23:18:49.063Z,0
2018-02-13T23:19:58.781Z,0
2018-02-13T23:21:08.025Z,0
2018-02-13T23:22:17.212Z,0
2018-02-13T23:23:26.662Z,0
2018-02-13T23:24:35.975Z,0
2018-02-13T23:25:45.739Z,0
2018-02-13T23:26:54.968Z,0
2018-02-13T23:28:04.206Z,0
2018-02-13T23:29:13.158Z,0
2018-02-13T23:30:23.138Z,0
2018-02-13T23:31:32.853Z,0
2018-02-13T23:32:42.309Z,0
2018-02-13T23:33:51.517Z,0
2018-02-13T23:35:01.235Z,0
2018-02-13T23:36:10.158Z,0
2018-02-13T23:37:20.151Z,0
2018-02-13T23:38:29.942Z,0
2018-02-13T23:39:39.440Z,0
2018-02-13T23:40:48.880Z,0
2018-02-13T23:41:58.930Z,0
2018-02-13T23:43:08.699Z,0
2018-02-13T23:44:18.450Z,0
2018-02-13T23:45:27.633Z,0
2018-02-13T23:46:37.429Z,0
2018-02-13T23:47:47.413Z,0
2018-02-13T23:48:56.893Z,0
2018-02-13T23:50:06.725Z,0
2018-02-13T23:51:16.812Z,0
2018-02-13T23:52:26.572Z,0
2018-02-13T23:53:36.582Z,0
2018-02-13T23:54:46.038Z,0
2018-02-13T23:55:55.533Z,0
2018-02-13T23:57:05.307Z,0
2018-02-13T23:58:14.522Z,0
2018-02-13T23:59:24.264Z,0
